createdAt,value
2023-05-13T00:01:02.700Z,20.92
2023-05-13T00:03:29.711Z,21.73
2023-05-13T00:05:57.017Z,19.00
2023-05-13T00:08:24.951Z,19.27
2023-05-13T00:10:51.794Z,22.02
2023-05-13T00:13:18.616Z,18.63
2023-05-13T00:15:47.608Z,22.40
2023-05-13T00:18:14.436Z,21.17
2023-05-13T00:20:41.303Z,20.42
2023-05-13T00:23:08.899Z,19.50
2023-05-13T00:25:37.219Z,19.77
2023-05-13T00:28:05.220Z,20.58
2023-05-13T00:30:34.454Z,21.38
2023-05-13T00:33:01.907Z,28.38
2023-05-13T00:35:29.150Z,21.95
2023-05-13T00:37:57.120Z,20.45
2023-05-13T00:40:25.325Z,20.65
2023-05-13T00:42:54.322Z,18.48
2023-05-13T00:45:21.870Z,18.83
2023-05-13T00:47:50.092Z,20.60
2023-05-13T00:50:17.514Z,19.40
2023-05-13T00:52:44.751Z,16.90
2023-05-13T00:55:12.247Z,20.08
2023-05-13T00:57:41.184Z,18.55
2023-05-13T01:00:09.688Z,14.40
2023-05-13T01:02:53.541Z,17.63
2023-05-13T01:05:39.382Z,19.45
2023-05-13T01:08:54.354Z,16.38
2023-05-13T01:11:42.007Z,21.63
2023-05-13T01:14:17.148Z,18.23
2023-05-13T01:16:52.031Z,16.98
2023-05-13T01:19:35.534Z,15.45
2023-05-13T01:22:02.651Z,19.27
2023-05-13T01:24:29.683Z,17.40
2023-05-13T01:26:56.888Z,17.52
2023-05-13T01:29:24.148Z,17.05
2023-05-13T01:31:52.622Z,18.38
2023-05-13T01:34:23.737Z,16.08
2023-05-13T01:36:59.140Z,18.63
2023-05-13T01:39:28.740Z,17.50
2023-05-13T01:41:59.106Z,20.35
2023-05-13T01:44:27.183Z,18.45
2023-05-13T01:46:54.506Z,15.32
2023-05-13T01:49:22.256Z,16.48
2023-05-13T01:51:49.205Z,17.95
2023-05-13T01:54:16.341Z,17.05
2023-05-13T01:56:48.594Z,20.00
2023-05-13T01:59:16.176Z,17.33
2023-05-13T02:01:43.101Z,18.17
2023-05-13T02:04:09.919Z,19.35
2023-05-13T02:06:37.094Z,18.73
2023-05-13T02:09:04.623Z,21.33
2023-05-13T02:11:31.376Z,18.58
2023-05-13T02:14:00.579Z,16.90
2023-05-13T02:16:27.495Z,19.98
2023-05-13T02:18:54.627Z,20.08
2023-05-13T02:21:28.349Z,21.48
2023-05-13T02:23:55.178Z,21.58
2023-05-13T02:26:22.672Z,21.80
2023-05-13T02:28:51.781Z,20.73
2023-05-13T02:31:20.925Z,21.88
2023-05-13T02:33:48.330Z,23.45
2023-05-13T02:36:16.398Z,20.05
2023-05-13T02:38:44.088Z,22.58
2023-05-13T02:41:13.017Z,21.85
2023-05-13T02:43:39.957Z,25.52
2023-05-13T02:46:08.085Z,25.25
2023-05-13T02:48:34.910Z,24.48
2023-05-13T02:51:02.039Z,26.02
2023-05-13T02:53:28.895Z,23.33
2023-05-13T02:56:01.014Z,24.83
2023-05-13T02:58:31.303Z,30.15
2023-05-13T03:00:59.351Z,28.70
2023-05-13T03:03:26.777Z,30.67
2023-05-13T03:05:53.619Z,25.67
2023-05-13T03:08:20.729Z,26.17
2023-05-13T03:10:49.969Z,26.90
2023-05-13T03:13:16.890Z,27.33
2023-05-13T03:15:45.195Z,28.80
2023-05-13T03:18:13.019Z,28.73
2023-05-13T03:20:40.413Z,30.63
2023-05-13T03:23:08.023Z,26.52
2023-05-13T03:25:35.924Z,26.70
2023-05-13T03:28:04.109Z,31.75
2023-05-13T03:30:35.454Z,31.88
2023-05-13T03:33:05.950Z,32.53
2023-05-13T03:35:33.121Z,29.05
2023-05-13T03:38:00.234Z,31.83
2023-05-13T03:40:28.014Z,32.33
2023-05-13T03:42:56.329Z,27.23
2023-05-13T03:45:24.274Z,29.63
2023-05-13T03:47:54.256Z,29.50
2023-05-13T03:50:23.904Z,27.02
2023-05-13T03:52:52.416Z,28.63
2023-05-13T03:55:20.805Z,26.38
2023-05-13T03:57:49.434Z,27.38
2023-05-13T04:00:18.785Z,30.02
2023-05-13T04:02:48.527Z,30.67
2023-05-13T04:05:15.945Z,29.30
2023-05-13T04:07:43.901Z,30.73
2023-05-13T04:10:14.560Z,31.33
2023-05-13T04:12:42.319Z,25.63
2023-05-13T04:15:09.558Z,31.75
2023-05-13T04:17:36.378Z,28.55
2023-05-13T04:20:03.457Z,29.08
2023-05-13T04:22:30.386Z,30.20
2023-05-13T04:24:57.650Z,28.42
2023-05-13T04:27:24.897Z,28.75
2023-05-13T04:29:57.635Z,31.42
2023-05-13T04:32:25.951Z,29.45
2023-05-13T04:34:55.465Z,27.58
2023-05-13T04:37:26.636Z,28.00
2023-05-13T04:39:56.895Z,30.65
2023-05-13T04:42:24.522Z,28.25
2023-05-13T04:44:51.589Z,30.88
2023-05-13T04:47:19.165Z,32.70
2023-05-13T04:49:46.277Z,25.08
2023-05-13T04:52:13.942Z,28.08
2023-05-13T04:54:40.991Z,33.05
2023-05-13T04:57:08.427Z,30.15
2023-05-13T04:59:36.349Z,31.92
2023-05-13T05:02:03.595Z,25.35
2023-05-13T05:04:31.225Z,28.55
2023-05-13T05:06:58.768Z,28.67
2023-05-13T05:09:25.985Z,28.15
2023-05-13T05:11:54.429Z,30.27
2023-05-13T05:14:24.737Z,27.90
2023-05-13T05:16:51.641Z,29.10
2023-05-13T05:19:24.352Z,29.60
2023-05-13T05:21:52.568Z,30.52
2023-05-13T05:24:19.711Z,26.25
2023-05-13T05:26:48.182Z,26.08
2023-05-13T05:29:16.276Z,26.38
2023-05-13T05:31:44.457Z,27.13
2023-05-13T05:34:11.698Z,27.67
2023-05-13T05:36:38.678Z,27.83
2023-05-13T05:39:06.033Z,27.77
2023-05-13T05:41:35.956Z,22.90
2023-05-13T05:44:03.321Z,23.42
2023-05-13T05:46:31.196Z,26.02
2023-05-13T05:48:58.773Z,26.83
2023-05-13T05:51:26.529Z,27.02
2023-05-13T05:53:54.218Z,24.95
2023-05-13T05:56:22.096Z,24.05
2023-05-13T05:58:49.834Z,22.23
2023-05-13T06:01:19.105Z,27.40
2023-05-13T06:03:46.437Z,25.60
2023-05-13T06:06:15.124Z,20.90
2023-05-13T06:08:42.051Z,22.85
2023-05-13T06:11:09.311Z,19.33
2023-05-13T06:13:36.234Z,23.00
2023-05-13T06:16:03.359Z,22.50
2023-05-13T06:18:30.415Z,19.88
2023-05-13T06:20:57.379Z,16.75
2023-05-13T06:23:24.521Z,18.67
2023-05-13T06:25:52.097Z,22.48
2023-05-13T06:28:19.359Z,16.65
2023-05-13T06:30:46.780Z,19.10
2023-05-13T06:33:14.101Z,13.07
2023-05-13T06:35:41.157Z,16.42
2023-05-13T06:38:10.979Z,16.42
2023-05-13T06:40:38.166Z,14.93
2023-05-13T06:43:06.412Z,15.57
2023-05-13T06:45:38.111Z,14.50
2023-05-13T06:48:05.294Z,12.40
2023-05-13T06:50:32.271Z,14.25
2023-05-13T06:52:59.405Z,13.50
2023-05-13T06:55:26.828Z,11.98
2023-05-13T06:57:53.697Z,11.68
2023-05-13T07:00:20.973Z,11.85
2023-05-13T07:02:48.458Z,8.88
2023-05-13T07:05:15.475Z,7.88
2023-05-13T07:07:43.533Z,7.85
2023-05-13T07:10:10.961Z,8.95
2023-05-13T07:12:37.971Z,9.48
2023-05-13T07:15:05.653Z,7.32
2023-05-13T07:17:32.804Z,9.95
2023-05-13T07:20:00.273Z,6.25
2023-05-13T07:22:27.981Z,7.53
2023-05-13T07:24:55.437Z,8.32
2023-05-13T07:27:22.409Z,6.70
2023-05-13T07:29:49.383Z,6.25
2023-05-13T07:32:22.323Z,7.07
2023-05-13T07:34:49.253Z,9.23
2023-05-13T07:37:17.015Z,5.55
2023-05-13T07:39:43.812Z,6.32
2023-05-13T07:42:11.106Z,7.65
2023-05-13T07:44:38.279Z,7.47
2023-05-13T07:47:05.679Z,5.60
2023-05-13T07:49:32.737Z,10.13
2023-05-13T07:51:59.608Z,6.35
2023-05-13T07:54:26.570Z,6.53
2023-05-13T07:56:53.494Z,6.80
2023-05-13T07:59:20.450Z,6.10
2023-05-13T08:01:47.330Z,7.00
2023-05-13T08:04:14.866Z,8.80
2023-05-13T08:06:42.318Z,8.23
2023-05-13T08:09:12.356Z,11.25
2023-05-13T08:11:39.490Z,10.68
2023-05-13T08:14:06.883Z,9.20
2023-05-13T08:16:37.389Z,7.00
2023-05-13T08:19:06.007Z,10.93
2023-05-13T08:21:33.394Z,7.57
2023-05-13T08:24:00.693Z,6.18
2023-05-13T08:26:27.974Z,12.32
2023-05-13T08:28:55.380Z,7.97
2023-05-13T08:31:28.030Z,9.30
2023-05-13T08:33:54.958Z,6.68
2023-05-13T08:36:23.555Z,8.10
2023-05-13T08:38:50.476Z,8.73
2023-05-13T08:41:18.926Z,7.75
2023-05-13T08:43:47.610Z,6.55
2023-05-13T08:46:17.033Z,8.65
2023-05-13T08:48:45.306Z,9.27
2023-05-13T08:51:13.013Z,9.02
2023-05-13T08:53:41.253Z,8.20
2023-05-13T08:56:09.969Z,6.65
2023-05-13T08:58:37.021Z,8.55
2023-05-13T09:01:05.626Z,9.88
2023-05-13T09:03:35.881Z,8.18
2023-05-13T09:06:03.438Z,8.30
2023-05-13T09:08:30.548Z,8.43
2023-05-13T09:10:59.219Z,7.00
2023-05-13T09:13:26.247Z,9.35
2023-05-13T09:15:54.074Z,9.25
2023-05-13T09:18:21.255Z,8.35
2023-05-13T09:20:48.400Z,7.10
2023-05-13T09:23:16.355Z,7.60
2023-05-13T09:25:43.401Z,6.57
2023-05-13T09:28:14.733Z,6.35
2023-05-13T09:30:45.448Z,7.20
2023-05-13T09:33:20.343Z,5.03
2023-05-13T09:35:53.429Z,7.90
2023-05-13T09:38:21.571Z,4.63
2023-05-13T09:40:52.125Z,7.45
2023-05-13T09:43:24.150Z,8.55
2023-05-13T09:45:55.679Z,6.75
2023-05-13T09:48:25.153Z,5.07
2023-05-13T09:50:52.688Z,10.30
2023-05-13T09:53:22.922Z,6.60
2023-05-13T09:55:54.685Z,6.43
2023-05-13T09:58:31.050Z,8.80
2023-05-13T10:00:59.377Z,6.90
2023-05-13T10:03:28.783Z,8.02
2023-05-13T10:05:57.862Z,6.60
2023-05-13T10:08:27.415Z,9.43
2023-05-13T10:10:56.738Z,5.70
2023-05-13T10:13:25.213Z,10.98
2023-05-13T10:15:54.470Z,9.38
2023-05-13T10:18:23.033Z,7.30
2023-05-13T10:20:54.052Z,7.35
2023-05-13T10:23:22.834Z,9.55
2023-05-13T10:25:51.161Z,8.27
2023-05-13T10:28:19.013Z,7.20
2023-05-13T10:30:46.408Z,6.78
2023-05-13T10:33:14.233Z,9.68
2023-05-13T10:35:49.868Z,8.68
2023-05-13T10:38:50.534Z,10.70
2023-05-13T10:41:49.971Z,8.07
2023-05-13T10:44:20.194Z,9.38
2023-05-13T10:46:50.463Z,12.25
2023-05-13T10:49:17.321Z,7.65
2023-05-13T10:51:48.891Z,9.13
2023-05-13T10:54:23.375Z,8.48
2023-05-13T10:56:57.917Z,8.18
2023-05-13T10:59:24.849Z,12.70
2023-05-13T11:01:51.880Z,9.35
2023-05-13T11:04:20.738Z,8.07
2023-05-13T11:06:49.563Z,9.95
2023-05-13T11:09:30.938Z,10.63
2023-05-13T11:12:00.102Z,9.25
2023-05-13T11:14:30.732Z,10.38
2023-05-13T11:17:00.568Z,8.70
2023-05-13T11:19:30.131Z,10.10
2023-05-13T11:21:58.959Z,8.02
2023-05-13T11:24:27.186Z,10.05
2023-05-13T11:26:56.643Z,9.50
2023-05-13T11:29:34.767Z,9.35
2023-05-13T11:32:05.997Z,13.02
2023-05-13T11:34:34.487Z,8.65
2023-05-13T11:37:04.419Z,8.80
2023-05-13T11:39:33.023Z,10.10
2023-05-13T11:42:04.042Z,8.95
2023-05-13T11:44:31.278Z,8.82
2023-05-13T11:47:00.539Z,8.85
2023-05-13T11:49:34.119Z,11.07
2023-05-13T11:52:25.565Z,10.57
2023-05-13T11:54:57.993Z,9.45
2023-05-13T11:57:26.288Z,10.32
2023-05-13T12:00:05.133Z,10.85
2023-05-13T12:02:35.766Z,13.52
2023-05-13T12:05:08.049Z,8.50
2023-05-13T12:07:36.680Z,14.77
2023-05-13T12:10:05.726Z,10.07
2023-05-13T12:12:44.533Z,9.60
2023-05-13T12:15:17.742Z,8.85
2023-05-13T12:17:45.623Z,9.20
2023-05-13T12:20:14.364Z,13.40
2023-05-13T12:22:44.752Z,10.45
2023-05-13T12:25:36.632Z,12.23
2023-05-13T12:28:26.442Z,10.15
2023-05-13T12:30:56.442Z,8.65
2023-05-13T12:33:28.734Z,11.68
2023-05-13T12:36:20.560Z,10.82
2023-05-13T12:39:02.380Z,8.95
2023-05-13T12:41:31.296Z,10.13
2023-05-13T12:44:02.424Z,10.57
2023-05-13T12:46:30.332Z,9.85
2023-05-13T12:49:01.824Z,10.90
2023-05-13T12:51:34.274Z,12.82
2023-05-13T12:54:02.048Z,10.45
2023-05-13T12:56:31.585Z,10.07
2023-05-13T12:58:59.995Z,13.13
2023-05-13T13:01:28.773Z,12.20
2023-05-13T13:03:56.036Z,9.82
2023-05-13T13:06:23.987Z,11.23
2023-05-13T13:08:51.792Z,10.55
2023-05-13T13:11:19.716Z,10.40
2023-05-13T13:13:47.434Z,14.93
2023-05-13T13:16:15.116Z,9.88
2023-05-13T13:18:43.302Z,10.43
2023-05-13T13:21:10.816Z,7.55
2023-05-13T13:23:38.592Z,11.00
2023-05-13T13:26:06.846Z,11.73
2023-05-13T13:28:33.796Z,9.88
2023-05-13T13:31:01.098Z,9.35
2023-05-13T13:33:30.092Z,11.43
2023-05-13T13:35:57.448Z,11.63
2023-05-13T13:38:25.554Z,12.13
2023-05-13T13:40:52.506Z,13.98
2023-05-13T13:43:20.113Z,9.40
2023-05-13T13:45:47.324Z,11.55
2023-05-13T13:48:15.601Z,10.82
2023-05-13T13:50:42.446Z,9.75
2023-05-13T13:53:09.670Z,11.10
2023-05-13T13:55:39.756Z,10.95
2023-05-13T13:58:07.010Z,11.50
2023-05-13T14:00:33.842Z,11.77
2023-05-13T14:03:03.178Z,11.38
2023-05-13T14:05:30.069Z,13.02
2023-05-13T14:07:57.316Z,8.27
2023-05-13T14:10:24.768Z,10.35
2023-05-13T14:12:52.113Z,12.65
2023-05-13T14:15:18.938Z,13.07
2023-05-13T14:17:47.274Z,12.85
2023-05-13T14:20:14.430Z,9.35
2023-05-13T14:22:41.674Z,11.23
2023-05-13T14:25:09.921Z,11.68
2023-05-13T14:27:37.683Z,15.45
2023-05-13T14:30:05.824Z,10.35
2023-05-13T14:32:34.211Z,9.77
2023-05-13T14:35:01.220Z,14.15
2023-05-13T14:37:28.151Z,13.00
2023-05-13T14:39:56.425Z,10.10
2023-05-13T14:42:24.280Z,9.20
2023-05-13T14:44:51.194Z,13.75
2023-05-13T14:47:19.340Z,12.48
2023-05-13T14:49:48.472Z,10.35
2023-05-13T14:52:15.715Z,14.00
2023-05-13T14:54:43.128Z,9.70
2023-05-13T14:57:11.980Z,11.63
2023-05-13T14:59:38.864Z,8.02
2023-05-13T15:02:05.760Z,8.95
2023-05-13T15:04:32.908Z,12.93
2023-05-13T15:07:00.285Z,12.18
2023-05-13T15:09:27.309Z,10.65
2023-05-13T15:11:54.520Z,12.10
2023-05-13T15:14:26.068Z,11.75
2023-05-13T15:16:55.333Z,13.45
2023-05-13T15:19:22.571Z,10.60
2023-05-13T15:21:49.783Z,13.73
2023-05-13T15:24:16.529Z,12.38
2023-05-13T15:26:43.492Z,10.73
2023-05-13T15:29:10.349Z,12.52
2023-05-13T15:31:37.661Z,11.07
2023-05-13T15:34:04.477Z,10.65
2023-05-13T15:36:31.581Z,9.60
2023-05-13T15:38:59.528Z,9.60
2023-05-13T15:41:27.359Z,8.68
2023-05-13T15:43:54.368Z,12.65
2023-05-13T15:46:22.294Z,10.13
2023-05-13T15:48:49.466Z,9.93
2023-05-13T15:51:16.425Z,12.48
2023-05-13T15:53:43.646Z,10.43
2023-05-13T15:56:11.050Z,12.32
2023-05-13T15:58:38.600Z,11.18
2023-05-13T16:01:05.630Z,15.55
2023-05-13T16:03:33.283Z,17.40
2023-05-13T16:06:00.216Z,10.85
2023-05-13T16:08:26.991Z,15.07
2023-05-13T16:10:53.889Z,13.10
2023-05-13T16:13:22.147Z,12.05
2023-05-13T16:15:54.515Z,12.40
2023-05-13T16:18:22.839Z,9.75
2023-05-13T16:20:52.564Z,12.43
2023-05-13T16:23:19.446Z,10.13
2023-05-13T16:25:47.279Z,11.57
2023-05-13T16:28:14.618Z,14.02
2023-05-13T16:30:43.081Z,10.95
2023-05-13T16:33:10.604Z,14.13
2023-05-13T16:35:44.221Z,17.27
2023-05-13T16:38:12.012Z,12.90
2023-05-13T16:40:39.044Z,14.68
2023-05-13T16:43:06.189Z,9.88
2023-05-13T16:45:33.201Z,10.23
2023-05-13T16:48:01.292Z,15.50
2023-05-13T16:50:29.621Z,12.30
2023-05-13T16:52:58.990Z,12.05
2023-05-13T16:55:26.680Z,13.85
2023-05-13T16:57:56.421Z,20.02
2023-05-13T17:00:24.913Z,14.18
2023-05-13T17:02:52.468Z,13.05
2023-05-13T17:05:19.304Z,12.93
2023-05-13T17:07:48.270Z,11.98
2023-05-13T17:10:15.618Z,12.95
2023-05-13T17:12:43.440Z,11.05
2023-05-13T17:15:11.614Z,13.75
2023-05-13T17:17:38.370Z,12.32
2023-05-13T17:20:06.724Z,10.20
2023-05-13T17:22:33.676Z,14.90
2023-05-13T17:25:00.742Z,13.63
2023-05-13T17:27:29.858Z,11.98
2023-05-13T17:29:57.074Z,11.02
2023-05-13T17:32:23.922Z,13.43
2023-05-13T17:34:52.402Z,12.60
2023-05-13T17:37:19.326Z,12.50
2023-05-13T17:39:46.338Z,10.48
2023-05-13T17:42:14.218Z,13.95
2023-05-13T17:44:41.196Z,14.65
2023-05-13T17:47:11.110Z,19.60
2023-05-13T17:49:38.034Z,12.30
2023-05-13T17:52:05.655Z,14.82
2023-05-13T17:54:33.183Z,16.75
2023-05-13T17:57:00.052Z,18.15
2023-05-13T17:59:26.943Z,14.80
2023-05-13T18:01:53.893Z,16.25
2023-05-13T18:04:21.052Z,14.65
2023-05-13T18:06:47.874Z,13.75
2023-05-13T18:09:14.966Z,11.60
2023-05-13T18:11:41.884Z,14.15
2023-05-13T18:14:08.728Z,17.65
2023-05-13T18:16:36.878Z,13.05
2023-05-13T18:19:03.744Z,13.93
2023-05-13T18:21:31.830Z,16.88
2023-05-13T18:23:58.775Z,18.73
2023-05-13T18:26:26.758Z,19.42
2023-05-13T18:28:53.630Z,17.58
2023-05-13T18:31:20.963Z,18.27
2023-05-13T18:33:47.924Z,18.10
2023-05-13T18:36:16.094Z,19.75
2023-05-13T18:38:43.322Z,15.23
2023-05-13T18:41:10.287Z,17.63
2023-05-13T18:43:48.686Z,19.15
2023-05-13T18:46:16.520Z,17.38
2023-05-13T18:48:43.606Z,16.92
2023-05-13T18:51:10.990Z,17.08
2023-05-13T18:53:39.642Z,15.70
2023-05-13T18:56:08.217Z,17.63
2023-05-13T18:58:37.573Z,16.17
2023-05-13T19:01:05.422Z,16.02
2023-05-13T19:03:32.490Z,15.23
2023-05-13T19:05:59.879Z,17.50
2023-05-13T19:08:27.859Z,16.60
2023-05-13T19:10:54.756Z,16.83
2023-05-13T19:13:22.859Z,20.20
2023-05-13T19:15:51.493Z,16.60
2023-05-13T19:18:19.304Z,16.17
2023-05-13T19:20:47.066Z,22.05
2023-05-13T19:23:14.748Z,17.10
2023-05-13T19:25:43.124Z,17.65
2023-05-13T19:28:13.270Z,16.08
2023-05-13T19:30:41.480Z,17.95
2023-05-13T19:33:10.795Z,21.67
2023-05-13T19:35:37.923Z,17.73
2023-05-13T19:38:06.877Z,21.45
2023-05-13T19:40:33.833Z,21.65
2023-05-13T19:43:01.293Z,17.75
2023-05-13T19:45:28.702Z,19.92
2023-05-13T19:48:02.987Z,20.27
2023-05-13T19:50:29.968Z,21.10
2023-05-13T19:52:57.974Z,20.13
2023-05-13T19:55:25.298Z,24.85
2023-05-13T19:57:58.686Z,21.33
2023-05-13T20:00:26.248Z,19.95
2023-05-13T20:02:53.345Z,21.73
2023-05-13T20:05:22.389Z,20.02
2023-05-13T20:07:50.662Z,19.02
2023-05-13T20:10:17.563Z,22.38
2023-05-13T20:12:45.371Z,20.27
2023-05-13T20:15:12.392Z,21.67
2023-05-13T20:17:39.717Z,22.33
2023-05-13T20:20:08.799Z,21.58
2023-05-13T20:22:35.660Z,20.67
2023-05-13T20:25:02.753Z,22.52
2023-05-13T20:27:40.814Z,22.17
2023-05-13T20:30:09.458Z,24.83
2023-05-13T20:32:39.890Z,22.15
2023-05-13T20:35:07.850Z,23.40
2023-05-13T20:37:37.962Z,21.08
2023-05-13T20:40:05.541Z,23.70
2023-05-13T20:42:33.800Z,24.27
2023-05-13T20:45:01.009Z,18.58
2023-05-13T20:47:29.058Z,26.80
2023-05-13T20:49:56.528Z,23.10
2023-05-13T20:52:23.554Z,20.88
2023-05-13T20:54:50.519Z,19.58
2023-05-13T20:57:22.966Z,22.52
2023-05-13T20:59:50.790Z,22.85
2023-05-13T21:02:18.410Z,22.27
2023-05-13T21:04:46.788Z,27.75
2023-05-13T21:07:14.198Z,23.60
2023-05-13T21:09:42.166Z,21.13
2023-05-13T21:12:09.838Z,21.48
2023-05-13T21:14:36.908Z,22.35
2023-05-13T21:17:04.277Z,26.08
2023-05-13T21:19:32.371Z,22.65
2023-05-13T21:22:02.134Z,26.52
2023-05-13T21:24:29.397Z,27.63
2023-05-13T21:26:56.374Z,25.45
2023-05-13T21:29:24.737Z,23.50
2023-05-13T21:31:51.921Z,18.38
2023-05-13T21:34:20.259Z,22.35
2023-05-13T21:36:47.396Z,26.25
2023-05-13T21:39:14.633Z,22.85
2023-05-13T21:41:41.789Z,21.77
2023-05-13T21:44:08.722Z,25.10
2023-05-13T21:46:38.747Z,25.85
2023-05-13T21:49:05.972Z,25.27
2023-05-13T21:51:33.099Z,32.30
2023-05-13T21:54:00.186Z,26.60
2023-05-13T21:56:27.424Z,25.70
2023-05-13T21:58:54.601Z,30.77
2023-05-13T22:01:21.747Z,31.20
2023-05-13T22:03:48.617Z,25.08
2023-05-13T22:06:19.200Z,29.65
2023-05-13T22:08:47.170Z,25.63
2023-05-13T22:11:16.208Z,32.85
2023-05-13T22:13:43.266Z,27.08
2023-05-13T22:16:10.535Z,27.70
2023-05-13T22:18:37.694Z,23.35
2023-05-13T22:21:06.802Z,24.33
2023-05-13T22:23:34.239Z,21.40
2023-05-13T22:26:01.312Z,27.10
2023-05-13T22:28:28.461Z,24.48
2023-05-13T22:30:56.993Z,25.63
2023-05-13T22:33:29.418Z,28.83
2023-05-13T22:35:59.679Z,24.90
2023-05-13T22:38:28.030Z,24.80
2023-05-13T22:40:56.299Z,28.35
2023-05-13T22:43:23.140Z,26.95
2023-05-13T22:45:50.508Z,20.85
2023-05-13T22:48:18.784Z,28.05
2023-05-13T22:50:45.944Z,22.98
2023-05-13T22:53:26.564Z,26.88
2023-05-13T22:55:55.447Z,25.77
2023-05-13T22:58:22.514Z,24.83
2023-05-13T23:00:49.955Z,31.38
2023-05-13T23:03:17.146Z,25.70
2023-05-13T23:05:45.274Z,22.17
2023-05-13T23:08:12.866Z,21.98
2023-05-13T23:10:40.121Z,27.33
2023-05-13T23:13:08.170Z,27.08
2023-05-13T23:15:37.457Z,28.05
2023-05-13T23:18:04.650Z,23.70
2023-05-13T23:20:31.750Z,25.13
2023-05-13T23:22:58.495Z,23.45
2023-05-13T23:25:32.099Z,27.60
2023-05-13T23:27:59.316Z,20.42
2023-05-13T23:30:26.573Z,23.80
2023-05-13T23:32:53.689Z,20.35
2023-05-13T23:35:20.668Z,26.70
2023-05-13T23:37:49.668Z,24.33
2023-05-13T23:40:16.612Z,21.50
2023-05-13T23:42:44.604Z,23.92
2023-05-13T23:45:12.089Z,22.27
2023-05-13T23:47:46.223Z,30.13
2023-05-13T23:50:13.608Z,25.48
2023-05-13T23:52:41.766Z,23.73
2023-05-13T23:55:08.754Z,23.60
2023-05-13T23:57:35.805Z,25.92
